Time;durP1;ratioP1;P1;durP2;ratioP2;P2;SDS_P1;SDS_P2;PMS_P1;PMS_P2;Temp;Humidity;BMP_temperature;BMP_pressure;BME280_temperature;BME280_humidity;BME280_pressure;Samples;Min_cycle;Max_cycle;Signal;HPM_P1;HPM_P2
2021/10/30 00:02:13;;;;;;;40.95;26.35;;;5.30;99.90;;;;;;5097908;28;20221;-75
2021/10/30 00:04:39;;;;;;;40.58;24.35;;;5.20;99.90;;;;;;5098215;28;20205;-75
2021/10/30 00:07:06;;;;;;;41.03;25.17;;;5.20;99.90;;;;;;5099045;28;20205;-75
2021/10/30 00:09:33;;;;;;;43.70;25.67;;;5.20;99.90;;;;;;5099643;28;20284;-75
2021/10/30 00:12:00;;;;;;;43.20;25.15;;;5.20;99.90;;;;;;5098973;28;20243;-75
2021/10/30 00:14:29;;;;;;;38.90;24.83;;;5.20;99.90;;;;;;5101596;28;20207;-75
2021/10/30 00:16:55;;;;;;;36.15;22.95;;;5.20;99.90;;;;;;5108653;28;20243;-74
2021/10/30 00:19:22;;;;;;;38.63;24.10;;;5.20;99.90;;;;;;5110460;28;20236;-74
2021/10/30 00:21:52;;;;;;;42.38;25.50;;;5.20;99.90;;;;;;5106359;28;20336;-75
2021/10/30 00:24:19;;;;;;;44.65;26.20;;;5.30;99.90;;;;;;5104747;28;20209;-75
2021/10/30 00:26:47;;;;;;;50.05;27.60;;;5.20;99.90;;;;;;5103195;28;20205;-75
2021/10/30 00:29:14;;;;;;;36.58;23.52;;;5.20;99.90;;;;;;5099452;28;20238;-75
2021/10/30 00:31:42;;;;;;;43.60;26.00;;;5.20;99.90;;;;;;5097344;28;20260;-75
2021/10/30 00:34:09;;;;;;;40.15;24.85;;;5.10;99.90;;;;;;5098200;28;20304;-76
2021/10/30 00:36:36;;;;;;;37.30;25.05;;;5.10;99.90;;;;;;5099179;28;20299;-75
2021/10/30 00:39:03;;;;;;;38.70;25.92;;;5.10;99.90;;;;;;5100305;28;20319;-75
2021/10/30 00:41:30;;;;;;;37.80;24.77;;;5.00;99.90;;;;;;5102935;28;20248;-75
2021/10/30 00:43:57;;;;;;;37.40;24.33;;;5.00;99.90;;;;;;5107254;28;20236;-75
2021/10/30 00:46:24;;;;;;;31.75;22.10;;;5.00;99.90;;;;;;5113742;28;20205;-75
2021/10/30 00:48:52;;;;;;;39.90;22.33;;;5.00;99.90;;;;;;5105044;28;20201;-75
2021/10/30 00:51:19;;;;;;;29.23;20.70;;;5.00;99.90;;;;;;5098008;28;20229;-75
2021/10/30 00:53:47;;;;;;;28.63;19.60;;;5.10;99.90;;;;;;5101258;28;20207;-74
2021/10/30 00:56:16;;;;;;;24.75;18.83;;;5.20;99.90;;;;;;5108801;28;20229;-75
2021/10/30 00:58:46;;;;;;;30.23;20.83;;;5.20;99.90;;;;;;5110472;28;20225;-75
2021/10/30 01:01:12;;;;;;;25.98;18.55;;;5.10;99.90;;;;;;5107364;28;20237;-75
2021/10/30 01:03:41;;;;;;;26.10;18.05;;;5.20;99.90;;;;;;5106435;28;20232;-75
2021/10/30 01:06:09;;;;;;;27.70;17.83;;;5.20;99.90;;;;;;5108300;28;20485;-75
2021/10/30 01:08:36;;;;;;;23.92;16.50;;;5.20;99.90;;;;;;5111973;28;20243;-75
2021/10/30 01:11:06;;;;;;;27.65;18.55;;;5.20;99.90;;;;;;5110866;28;20284;-75
2021/10/30 01:13:33;;;;;;;28.15;17.95;;;5.20;99.90;;;;;;5109789;28;20225;-75
2021/10/30 01:16:00;;;;;;;24.60;17.73;;;5.30;99.90;;;;;;5110996;28;20330;-76
2021/10/30 01:18:27;;;;;;;27.92;19.73;;;5.20;99.90;;;;;;5109158;28;20244;-76
2021/10/30 01:20:55;;;;;;;33.35;21.65;;;5.20;99.90;;;;;;5105549;28;20212;-76
2021/10/30 01:23:22;;;;;;;29.10;20.13;;;5.00;99.90;;;;;;5110603;28;20205;-76
2021/10/30 01:25:56;;;;;;;29.77;19.52;;;5.00;99.90;;;;;;5109294;28;20217;-76
2021/10/30 01:28:23;;;;;;;32.65;21.10;;;5.00;99.90;;;;;;5110760;28;20234;-74
2021/10/30 01:30:50;;;;;;;29.27;20.02;;;4.90;99.90;;;;;;5105847;28;20205;-75
2021/10/30 01:33:17;;;;;;;25.67;18.83;;;4.90;99.90;;;;;;5108811;28;20229;-75
2021/10/30 01:35:44;;;;;;;29.02;19.45;;;4.90;99.90;;;;;;5107682;28;20209;-73
2021/10/30 01:38:13;;;;;;;25.38;18.17;;;4.90;99.90;;;;;;5109240;28;20243;-74
2021/10/30 01:40:42;;;;;;;27.52;17.73;;;4.90;99.90;;;;;;5107851;28;20273;-75
2021/10/30 01:43:10;;;;;;;23.73;16.85;;;4.90;99.90;;;;;;5107932;28;20228;-74
2021/10/30 01:45:38;;;;;;;27.23;19.23;;;4.90;99.90;;;;;;5109225;28;20211;-74
2021/10/30 01:48:05;;;;;;;27.52;18.55;;;4.90;99.90;;;;;;5108366;28;20201;-76
2021/10/30 01:50:32;;;;;;;24.48;17.65;;;4.90;99.90;;;;;;5107845;28;20205;-75
2021/10/30 01:53:00;;;;;;;28.13;19.23;;;4.80;99.90;;;;;;5108746;28;20300;-74
2021/10/30 01:55:31;;;;;;;28.98;19.08;;;4.90;99.90;;;;;;5107386;28;20205;-76
2021/10/30 01:57:59;;;;;;;30.92;18.40;;;4.80;99.90;;;;;;5107774;28;20272;-76
2021/10/30 02:00:26;;;;;;;24.05;18.65;;;4.80;99.90;;;;;;5108313;28;20297;-75
2021/10/30 02:02:53;;;;;;;24.33;17.27;;;4.90;99.90;;;;;;5106805;28;20297;-76
2021/10/30 02:05:21;;;;;;;27.92;17.52;;;4.80;99.90;;;;;;5107545;28;20233;-74
2021/10/30 02:07:48;;;;;;;22.70;16.92;;;4.80;99.90;;;;;;5108309;28;20228;-75
2021/10/30 02:10:16;;;;;;;24.33;16.23;;;4.80;99.90;;;;;;5108774;28;20212;-75
2021/10/30 02:12:47;;;;;;;25.13;16.77;;;4.80;99.90;;;;;;5109169;28;20246;-76
2021/10/30 02:15:14;;;;;;;22.20;15.07;;;4.70;99.90;;;;;;5108871;28;20296;-76
2021/10/30 02:17:40;;;;;;;24.70;16.65;;;4.70;99.90;;;;;;5108387;28;20236;-76
2021/10/30 02:20:10;;;;;;;22.38;16.30;;;4.70;99.90;;;;;;5109901;28;20328;-75
2021/10/30 02:22:37;;;;;;;24.55;16.65;;;4.60;99.90;;;;;;5109969;28;20224;-78
2021/10/30 02:25:05;;;;;;;21.63;16.40;;;4.50;99.90;;;;;;5108835;28;20212;-76
2021/10/30 02:27:32;;;;;;;24.67;17.17;;;4.60;99.90;;;;;;5107586;28;20201;-76
2021/10/30 02:30:00;;;;;;;25.65;17.92;;;4.60;99.90;;;;;;5106314;28;20212;-75
2021/10/30 02:32:27;;;;;;;25.10;16.63;;;4.50;99.90;;;;;;5108920;28;20221;-76
2021/10/30 02:34:54;;;;;;;24.60;16.63;;;4.50;99.90;;;;;;5112053;28;20230;-76
2021/10/30 02:37:21;;;;;;;31.65;17.23;;;4.50;99.90;;;;;;5112795;28;20205;-75
2021/10/30 02:39:48;;;;;;;25.73;17.02;;;4.50;99.90;;;;;;5114301;28;20205;-76
2021/10/30 02:42:15;;;;;;;21.70;16.20;;;4.50;99.90;;;;;;5114904;28;20248;-75
2021/10/30 02:44:42;;;;;;;21.80;16.55;;;4.50;99.90;;;;;;5114740;28;20222;-75
2021/10/30 02:47:10;;;;;;;20.58;15.25;;;4.50;99.90;;;;;;5111204;28;20304;-76
2021/10/30 02:49:37;;;;;;;23.85;15.80;;;4.50;99.90;;;;;;5112567;28;20204;-75
2021/10/30 02:52:05;;;;;;;24.17;16.08;;;4.40;99.90;;;;;;5112658;28;20232;-75
2021/10/30 02:54:32;;;;;;;20.27;15.50;;;4.40;99.90;;;;;;5112377;28;20212;-75
2021/10/30 02:56:59;;;;;;;25.20;16.77;;;4.40;99.90;;;;;;5112073;28;20201;-75
2021/10/30 02:59:26;;;;;;;24.52;16.17;;;4.50;99.90;;;;;;5110524;28;20253;-73
2021/10/30 03:01:53;;;;;;;25.92;18.05;;;4.50;99.90;;;;;;5116518;28;20468;-73
2021/10/30 03:04:21;;;;;;;24.33;16.63;;;4.50;99.90;;;;;;5115609;28;20193;-74
2021/10/30 03:06:49;;;;;;;26.10;17.35;;;4.40;99.90;;;;;;5106655;28;20747;-73
2021/10/30 03:09:17;;;;;;;29.05;18.98;;;4.40;99.90;;;;;;5101007;28;20232;-74
2021/10/30 03:11:44;;;;;;;28.15;18.20;;;4.30;99.90;;;;;;5112153;28;20594;-77
2021/10/30 03:14:11;;;;;;;32.58;18.20;;;4.20;99.90;;;;;;5106724;28;20209;-77
2021/10/30 03:16:38;;;;;;;35.22;17.13;;;4.20;99.90;;;;;;5106881;28;20277;-75
2021/10/30 03:19:04;;;;;;;23.45;17.80;;;4.20;99.90;;;;;;5108001;28;20236;-76
2021/10/30 03:21:33;;;;;;;27.95;18.35;;;4.20;99.90;;;;;;5107214;28;20263;-74
2021/10/30 03:24:00;;;;;;;27.10;19.02;;;4.30;99.90;;;;;;5109662;28;20216;-75
2021/10/30 03:26:27;;;;;;;25.95;17.55;;;4.40;99.90;;;;;;5107819;28;20273;-77
2021/10/30 03:28:54;;;;;;;25.85;17.13;;;4.40;99.90;;;;;;5108076;28;20205;-75
2021/10/30 03:31:21;;;;;;;30.02;18.10;;;4.40;99.90;;;;;;5110722;28;20228;-75
2021/10/30 03:33:48;;;;;;;24.38;18.77;;;4.40;99.90;;;;;;5112168;28;20291;-75
2021/10/30 03:36:15;;;;;;;31.58;18.80;;;4.50;99.90;;;;;;5111367;28;20215;-76
2021/10/30 03:38:44;;;;;;;32.88;19.90;;;4.50;99.90;;;;;;5109981;28;20216;-76
2021/10/30 03:41:11;;;;;;;30.92;19.98;;;4.50;99.90;;;;;;5106147;28;20315;-74
2021/10/30 03:43:38;;;;;;;33.40;20.10;;;4.50;99.90;;;;;;5109684;28;20215;-75
2021/10/30 03:46:08;;;;;;;25.50;18.65;;;4.40;99.90;;;;;;5109254;28;20197;-75
2021/10/30 03:48:35;;;;;;;25.67;17.52;;;4.50;99.90;;;;;;5108851;28;20215;-76
2021/10/30 03:51:01;;;;;;;29.88;18.45;;;4.40;99.90;;;;;;5113548;28;20213;-77
2021/10/30 03:53:29;;;;;;;28.88;19.83;;;4.40;99.90;;;;;;5111348;28;20205;-75
2021/10/30 03:55:57;;;;;;;35.25;20.27;;;4.50;99.90;;;;;;5110772;28;20196;-75
2021/10/30 03:58:24;;;;;;;26.33;20.30;;;4.50;99.90;;;;;;5110066;28;20217;-75
2021/10/30 04:00:51;;;;;;;27.42;19.15;;;4.50;99.90;;;;;;5109539;28;20251;-75
2021/10/30 04:03:18;;;;;;;25.70;17.52;;;4.50;99.90;;;;;;5109770;28;20751;-76
2021/10/30 04:05:45;;;;;;;25.65;18.55;;;4.50;99.90;;;;;;5110444;28;20274;-76
2021/10/30 04:08:14;;;;;;;32.38;19.58;;;4.50;99.90;;;;;;5109970;28;20209;-76
2021/10/30 04:10:42;;;;;;;27.83;18.55;;;4.50;99.90;;;;;;5108939;28;20228;-76
2021/10/30 04:13:10;;;;;;;30.73;19.15;;;4.50;99.90;;;;;;5110113;28;20213;-75
2021/10/30 04:15:37;;;;;;;25.00;17.35;;;4.50;99.90;;;;;;5111552;28;20206;-75
2021/10/30 04:18:04;;;;;;;25.17;17.48;;;4.50;99.90;;;;;;5113338;28;20209;-75
2021/10/30 04:20:32;;;;;;;25.73;18.70;;;4.50;99.90;;;;;;5115671;28;20292;-75
2021/10/30 04:22:59;;;;;;;24.50;16.25;;;4.40;99.90;;;;;;5115008;28;20674;-74
2021/10/30 04:25:26;;;;;;;25.70;16.10;;;4.40;99.90;;;;;;5114289;28;20193;-78
2021/10/30 04:27:53;;;;;;;22.10;16.23;;;4.40;99.90;;;;;;5114059;28;20231;-76
2021/10/30 04:30:21;;;;;;;23.92;16.65;;;4.40;99.90;;;;;;5112814;28;20201;-76
2021/10/30 04:32:49;;;;;;;23.90;17.10;;;4.40;99.90;;;;;;5112607;28;20260;-75
2021/10/30 04:35:16;;;;;;;23.27;15.63;;;4.40;99.90;;;;;;5111388;28;20205;-76
2021/10/30 04:37:43;;;;;;;23.27;16.45;;;4.40;99.90;;;;;;5099844;28;20256;-76
2021/10/30 04:40:10;;;;;;;23.60;16.17;;;4.40;99.90;;;;;;5102241;28;20288;-76
2021/10/30 04:42:37;;;;;;;22.73;16.73;;;4.40;99.90;;;;;;5113638;28;20225;-75
2021/10/30 04:45:05;;;;;;;20.30;15.45;;;4.30;99.90;;;;;;5114145;28;20259;-75
2021/10/30 04:47:33;;;;;;;28.75;18.10;;;4.30;99.90;;;;;;5112740;28;20201;-74
2021/10/30 04:50:00;;;;;;;24.02;17.30;;;4.30;99.90;;;;;;5110130;28;20201;-76
2021/10/30 04:52:27;;;;;;;29.85;18.95;;;4.30;99.90;;;;;;5104926;28;20302;-76
2021/10/30 04:54:54;;;;;;;24.48;16.77;;;4.30;99.90;;;;;;5110702;28;20200;-76
2021/10/30 04:57:21;;;;;;;26.88;18.27;;;4.20;99.90;;;;;;5112274;28;20200;-76
2021/10/30 04:59:48;;;;;;;28.42;18.20;;;4.20;99.90;;;;;;5114854;28;20224;-76
2021/10/30 05:02:15;;;;;;;23.92;17.58;;;4.20;99.90;;;;;;5116535;28;20232;-75
2021/10/30 05:04:43;;;;;;;28.75;17.98;;;4.20;99.90;;;;;;5117135;28;20212;-76
2021/10/30 05:07:10;;;;;;;26.77;18.27;;;4.10;99.90;;;;;;5116057;28;20216;-76
2021/10/30 05:09:37;;;;;;;25.83;18.33;;;4.10;99.90;;;;;;5115884;28;20216;-75
2021/10/30 05:12:04;;;;;;;26.08;18.63;;;4.10;99.90;;;;;;5117272;28;20237;-74
2021/10/30 05:14:31;;;;;;;26.13;18.95;;;4.00;99.90;;;;;;5117821;28;20220;-76
2021/10/30 05:16:58;;;;;;;27.60;17.98;;;4.00;99.90;;;;;;5115849;28;20205;-75
2021/10/30 05:19:25;;;;;;;27.83;17.15;;;3.90;99.90;;;;;;5118570;28;20193;-75
2021/10/30 05:21:54;;;;;;;26.05;18.30;;;3.90;99.90;;;;;;5114741;28;20288;-77
2021/10/30 05:24:21;;;;;;;30.67;19.20;;;3.90;99.90;;;;;;5111577;28;20209;-77
2021/10/30 05:26:47;;;;;;;27.63;19.30;;;3.90;99.90;;;;;;5110444;28;20275;-77
2021/10/30 05:29:14;;;;;;;26.20;17.85;;;3.90;99.90;;;;;;5103241;28;20276;-76
2021/10/30 05:31:41;;;;;;;30.20;17.73;;;4.00;99.90;;;;;;5107585;28;20228;-77
2021/10/30 05:34:08;;;;;;;27.10;18.35;;;4.00;99.90;;;;;;5109268;28;20237;-77
2021/10/30 05:36:36;;;;;;;26.67;17.58;;;4.00;99.90;;;;;;5104598;28;20235;-77
2021/10/30 05:39:11;;;;;;;27.45;18.00;;;4.00;99.90;;;;;;5107471;28;20212;-76
2021/10/30 05:41:38;;;;;;;26.88;18.20;;;4.00;99.90;;;;;;5106168;28;20263;-76
2021/10/30 05:44:05;;;;;;;27.08;18.27;;;4.00;99.90;;;;;;5105985;28;20237;-73
2021/10/30 05:46:32;;;;;;;29.05;19.50;;;3.90;99.90;;;;;;5107367;28;20208;-75
2021/10/30 05:49:00;;;;;;;29.95;19.42;;;3.90;99.90;;;;;;5107108;28;20222;-76
2021/10/30 05:51:27;;;;;;;29.27;18.95;;;3.80;99.90;;;;;;5107432;28;20221;-76
2021/10/30 05:53:54;;;;;;;30.05;19.15;;;3.80;99.90;;;;;;5099025;28;20216;-73
2021/10/30 05:56:22;;;;;;;25.25;17.80;;;3.80;99.90;;;;;;5095850;28;20675;-76
2021/10/30 05:58:49;;;;;;;24.70;18.50;;;3.90;99.90;;;;;;5095049;28;20240;-75
2021/10/30 06:01:15;;;;;;;26.50;18.33;;;4.00;99.90;;;;;;5086453;28;20588;-75
2021/10/30 06:03:42;;;;;;;26.80;18.52;;;4.10;99.90;;;;;;5075948;28;20617;-75
2021/10/30 06:06:09;;;;;;;27.58;18.85;;;4.20;99.90;;;;;;5085834;28;20566;-76
2021/10/30 06:08:36;;;;;;;27.38;17.52;;;4.30;99.90;;;;;;5102243;28;20209;-74
2021/10/30 06:11:03;;;;;;;28.15;19.05;;;4.30;99.90;;;;;;5107341;28;20663;-75
2021/10/30 06:13:31;;;;;;;26.23;19.02;;;4.20;99.90;;;;;;5107530;28;20205;-75
2021/10/30 06:15:58;;;;;;;26.60;18.10;;;4.20;99.90;;;;;;5105584;28;20292;-76
2021/10/30 06:18:25;;;;;;;27.75;18.95;;;4.20;99.90;;;;;;5108576;28;20272;-73
2021/10/30 06:20:52;;;;;;;30.00;19.35;;;4.20;99.90;;;;;;5112642;28;20219;-76
2021/10/30 06:23:19;;;;;;;30.67;20.42;;;4.30;99.90;;;;;;5096061;28;20303;-78
2021/10/30 06:25:46;;;;;;;27.67;19.15;;;4.30;99.90;;;;;;5096277;28;20602;-78
2021/10/30 06:28:13;;;;;;;32.03;20.30;;;4.40;99.90;;;;;;5095774;28;20669;-79
2021/10/30 06:30:42;;;;;;;31.40;20.05;;;4.50;99.90;;;;;;5094990;28;20730;-78
2021/10/30 06:33:09;;;;;;;27.52;19.13;;;4.50;99.90;;;;;;5095295;28;20205;-79
2021/10/30 06:35:36;;;;;;;31.23;19.00;;;4.60;99.90;;;;;;5098367;28;20308;-78
2021/10/30 06:38:02;;;;;;;27.52;18.20;;;4.70;99.90;;;;;;5115563;28;20254;-76
2021/10/30 06:40:29;;;;;;;38.47;19.75;;;4.90;99.90;;;;;;5117005;28;20213;-73
2021/10/30 06:42:56;;;;;;;24.08;16.63;;;4.90;99.90;;;;;;5102181;28;20225;-78
2021/10/30 06:45:23;;;;;;;30.63;18.40;;;5.00;99.90;;;;;;5095986;28;20213;-79
2021/10/30 06:47:52;;;;;;;31.83;19.45;;;5.00;99.90;;;;;;5096792;28;20595;-78
2021/10/30 06:50:22;;;;;;;24.13;18.00;;;5.00;99.90;;;;;;5095548;28;20201;-79
2021/10/30 06:52:51;;;;;;;26.20;16.95;;;5.00;99.90;;;;;;5095550;28;20233;-77
2021/10/30 06:55:19;;;;;;;23.02;16.58;;;5.10;99.90;;;;;;5095080;28;20228;-78
2021/10/30 06:57:47;;;;;;;24.80;15.85;;;5.30;99.90;;;;;;5095589;28;20217;-77
2021/10/30 07:00:15;;;;;;;24.52;16.45;;;5.30;99.90;;;;;;5095132;28;20232;-77
2021/10/30 07:02:44;;;;;;;22.17;15.90;;;5.40;99.90;;;;;;5095722;28;20285;-78
2021/10/30 07:05:12;;;;;;;25.88;17.55;;;5.50;99.90;;;;;;5099487;28;20309;-78
2021/10/30 07:07:40;;;;;;;22.15;16.17;;;5.40;99.90;;;;;;5098621;28;20213;-79
2021/10/30 07:10:07;;;;;;;20.15;15.93;;;5.40;99.90;;;;;;5100305;28;20213;-77
2021/10/30 07:12:37;;;;;;;26.08;17.92;;;5.50;99.90;;;;;;5133502;22;20228;-75
2021/10/30 07:15:06;;;;;;;21.45;17.70;;;5.60;99.90;;;;;;5138735;27;20204;-76
2021/10/30 07:17:33;;;;;;;19.65;14.63;;;5.80;99.90;;;;;;5139315;27;20207;-74
2021/10/30 07:19:59;;;;;;;22.20;15.10;;;5.90;99.90;;;;;;5138403;27;20196;-77
2021/10/30 07:22:28;;;;;;;19.60;15.68;;;6.00;99.90;;;;;;5139202;27;20322;-75
2021/10/30 07:24:54;;;;;;;19.77;13.77;;;6.10;99.90;;;;;;5139139;27;20286;-76
2021/10/30 07:27:21;;;;;;;17.88;14.93;;;6.20;99.90;;;;;;5138257;27;20208;-75
2021/10/30 07:29:49;;;;;;;19.02;13.68;;;6.20;99.90;;;;;;5139046;27;20207;-76
2021/10/30 07:32:17;;;;;;;19.40;14.40;;;6.30;99.90;;;;;;5138158;27;20228;-76
2021/10/30 07:34:44;;;;;;;17.83;14.40;;;6.40;99.90;;;;;;5138668;27;20200;-75
2021/10/30 07:37:11;;;;;;;17.40;13.85;;;6.40;99.90;;;;;;5142844;27;20287;-76
2021/10/30 07:39:39;;;;;;;18.17;13.82;;;6.40;99.90;;;;;;5150517;27;20202;-76
2021/10/30 07:42:07;;;;;;;17.73;13.38;;;6.40;99.90;;;;;;5158763;27;20262;-76
2021/10/30 07:44:36;;;;;;;18.08;13.40;;;6.40;99.90;;;;;;5160443;27;20221;-75
2021/10/30 07:47:04;;;;;;;16.60;12.90;;;6.50;99.90;;;;;;5160643;27;20189;-76
2021/10/30 07:49:31;;;;;;;17.85;13.50;;;6.50;99.90;;;;;;5157843;27;20210;-76
2021/10/30 07:51:58;;;;;;;18.35;12.90;;;6.50;99.90;;;;;;5149777;27;20222;-76
2021/10/30 07:54:25;;;;;;;15.15;12.48;;;6.50;99.90;;;;;;5149224;27;20267;-76
2021/10/30 07:56:53;;;;;;;19.17;12.93;;;6.40;99.90;;;;;;5152717;27;20203;-77
2021/10/30 07:59:20;;;;;;;18.95;12.98;;;6.30;99.90;;;;;;5151327;27;20213;-76
2021/10/30 08:01:50;;;;;;;18.45;13.70;;;6.30;99.90;;;;;;5154043;27;20233;-76
2021/10/30 08:04:17;;;;;;;19.55;13.00;;;6.30;99.90;;;;;;5154951;27;20271;-76
2021/10/30 08:06:44;;;;;;;20.55;13.57;;;6.40;99.90;;;;;;5151405;27;20218;-76
2021/10/30 08:09:11;;;;;;;17.15;12.98;;;6.40;99.90;;;;;;5139287;27;20713;-76
2021/10/30 08:11:37;;;;;;;19.60;14.25;;;6.50;99.90;;;;;;5137194;27;20232;-76
2021/10/30 08:14:06;;;;;;;20.90;13.95;;;6.40;99.90;;;;;;5136770;27;20210;-76
2021/10/30 08:16:33;;;;;;;17.90;13.60;;;6.30;99.90;;;;;;5137188;27;20212;-76
2021/10/30 08:19:00;;;;;;;15.93;13.20;;;6.30;99.90;;;;;;5136818;27;20210;-77
2021/10/30 08:21:27;;;;;;;16.88;13.73;;;6.30;99.90;;;;;;5137542;27;20232;-76
2021/10/30 08:23:54;;;;;;;15.38;12.95;;;6.30;99.90;;;;;;5137403;27;20209;-76
2021/10/30 08:26:21;;;;;;;20.08;13.82;;;6.30;99.90;;;;;;5136817;27;20218;-76
2021/10/30 08:28:49;;;;;;;15.93;13.00;;;6.40;99.90;;;;;;5136837;27;20220;-77
2021/10/30 08:31:18;;;;;;;19.00;14.02;;;6.30;99.90;;;;;;5136659;27;20243;-75
2021/10/30 08:33:45;;;;;;;20.00;15.48;;;6.20;99.90;;;;;;5137275;27;20648;-76
2021/10/30 08:36:12;;;;;;;19.13;14.73;;;6.00;99.90;;;;;;5137226;27;20583;-76
2021/10/30 08:38:39;;;;;;;18.95;14.23;;;6.00;99.90;;;;;;5137094;27;20212;-76
2021/10/30 08:41:06;;;;;;;17.92;14.18;;;6.10;99.90;;;;;;5136266;27;20314;-76
2021/10/30 08:43:34;;;;;;;21.13;15.70;;;6.20;99.90;;;;;;5136847;27;20207;-76
2021/10/30 08:46:01;;;;;;;19.83;14.50;;;6.30;99.90;;;;;;5137593;27;20204;-77
2021/10/30 08:48:32;;;;;;;20.40;15.38;;;6.40;99.90;;;;;;5137475;27;20257;-76
2021/10/30 08:51:01;;;;;;;22.73;14.95;;;6.50;99.90;;;;;;5146482;27;20467;-75
2021/10/30 08:53:28;;;;;;;18.88;14.70;;;6.60;99.90;;;;;;5149360;27;20216;-76
2021/10/30 08:55:58;;;;;;;20.23;16.00;;;6.60;99.90;;;;;;5136429;27;20287;-77
2021/10/30 08:58:27;;;;;;;18.27;15.10;;;6.70;99.90;;;;;;5136644;27;20218;-76
2021/10/30 09:00:56;;;;;;;21.88;16.05;;;6.70;99.90;;;;;;5136304;27;20220;-76
2021/10/30 09:03:24;;;;;;;19.65;14.90;;;6.70;99.90;;;;;;5135938;27;20252;-76
2021/10/30 09:05:54;;;;;;;18.10;14.45;;;6.60;99.90;;;;;;5137283;27;20205;-77
2021/10/30 09:08:24;;;;;;;22.80;14.52;;;6.60;99.90;;;;;;5138496;27;20666;-77
2021/10/30 09:10:54;;;;;;;18.60;14.52;;;6.70;99.90;;;;;;5138828;27;20204;-75
2021/10/30 09:13:23;;;;;;;21.15;14.57;;;6.70;99.90;;;;;;5137046;27;20397;-75
2021/10/30 09:15:51;;;;;;;21.20;15.48;;;6.70;99.90;;;;;;5138980;27;20243;-75
2021/10/30 09:18:26;;;;;;;17.15;13.73;;;6.80;99.90;;;;;;5136468;27;20291;-77
2021/10/30 09:20:56;;;;;;;19.10;14.70;;;6.80;98.60;;;;;;5135439;27;20215;-76
2021/10/30 09:23:27;;;;;;;23.45;16.42;;;6.70;99.10;;;;;;5136167;27;20272;-76
2021/10/30 09:26:00;;;;;;;19.52;14.68;;;6.50;99.10;;;;;;5136753;27;20193;-77
2021/10/30 09:28:29;;;;;;;21.90;15.32;;;6.50;99.70;;;;;;5135376;27;20240;-76
2021/10/30 09:31:01;;;;;;;20.33;15.95;;;6.60;99.90;;;;;;5136177;27;20547;-76
2021/10/30 09:33:30;;;;;;;23.55;15.98;;;6.70;99.80;;;;;;5135682;27;20236;-76
2021/10/30 09:35:59;;;;;;;20.95;14.55;;;6.80;99.40;;;;;;5135849;27;20543;-76
2021/10/30 09:38:32;;;;;;;17.90;13.93;;;7.00;99.30;;;;;;5135922;27;20276;-77
2021/10/30 09:41:00;;;;;;;15.63;12.85;;;7.00;98.20;;;;;;5135600;27;20231;-76
2021/10/30 09:43:28;;;;;;;18.60;14.38;;;7.10;97.50;;;;;;5136366;27;20587;-76
2021/10/30 09:45:56;;;;;;;16.67;13.23;;;7.00;96.00;;;;;;5139996;27;20291;-76
2021/10/30 09:48:26;;;;;;;19.58;15.05;;;6.80;95.50;;;;;;5141922;27;20209;-77
2021/10/30 09:50:55;;;;;;;19.63;14.68;;;6.80;96.40;;;;;;5143801;27;20605;-76
2021/10/30 09:53:29;;;;;;;20.88;14.10;;;6.90;96.50;;;;;;5141995;27;20221;-76
2021/10/30 09:56:05;;;;;;;18.70;14.38;;;7.00;96.40;;;;;;5138851;27;20680;-76
2021/10/30 09:58:35;;;;;;;15.88;12.68;;;7.00;96.30;;;;;;5139205;27;20229;-77
2021/10/30 10:01:05;;;;;;;16.83;14.00;;;6.80;94.20;;;;;;5139800;27;20216;-77
2021/10/30 10:03:33;;;;;;;18.50;14.52;;;6.80;95.60;;;;;;5137276;27;20296;-77
2021/10/30 10:06:03;;;;;;;22.13;14.55;;;7.00;96.00;;;;;;5135648;27;20213;-76
2021/10/30 10:08:31;;;;;;;22.08;15.60;;;7.00;95.90;;;;;;5136247;27;20216;-77
2021/10/30 10:10:59;;;;;;;19.88;15.25;;;6.80;95.90;;;;;;5135067;27;20244;-76
2021/10/30 10:13:27;;;;;;;24.63;15.98;;;6.70;97.60;;;;;;5135357;27;20310;-77
2021/10/30 10:15:54;;;;;;;23.67;18.27;;;6.70;98.90;;;;;;5135478;27;20510;-77
2021/10/30 10:18:21;;;;;;;21.83;16.48;;;6.70;99.80;;;;;;5134453;27;20204;-76
2021/10/30 10:20:49;;;;;;;23.38;16.40;;;6.70;99.60;;;;;;5135248;27;20232;-75
2021/10/30 10:23:19;;;;;;;20.60;16.98;;;6.80;99.90;;;;;;5135013;27;20792;-76
2021/10/30 10:25:53;;;;;;;20.17;14.77;;;6.80;99.90;;;;;;5134691;27;20207;-76
2021/10/30 10:28:25;;;;;;;20.15;16.27;;;6.90;99.90;;;;;;5135077;27;20199;-76
2021/10/30 10:31:00;;;;;;;20.58;15.95;;;6.90;99.90;;;;;;5134736;27;20207;-75
2021/10/30 10:33:29;;;;;;;16.65;13.43;;;6.80;99.90;;;;;;5134792;27;20641;-76
2021/10/30 10:36:21;;;;;;;21.80;15.15;;;6.90;99.90;;;;;;5135489;27;20201;-76
2021/10/30 10:39:23;;;;;;;20.73;15.38;;;6.90;99.90;;;;;;5134645;27;20197;-76
2021/10/30 10:41:56;;;;;;;20.58;15.70;;;7.00;99.90;;;;;;5134657;27;20224;-76
2021/10/30 10:45:03;;;;;;;19.17;15.10;;;7.10;99.60;;;;;;5134735;27;20205;-76
2021/10/30 10:48:06;;;;;;;18.70;15.23;;;7.10;99.90;;;;;;5135305;27;20198;-76
2021/10/30 10:50:43;;;;;;;21.42;16.77;;;7.10;99.80;;;;;;5135448;28;20204;-76
2021/10/30 10:53:26;;;;;;;18.65;15.38;;;7.10;99.90;;;;;;5135408;28;20303;-76
2021/10/30 10:56:20;;;;;;;18.83;14.80;;;7.10;99.90;;;;;;5135079;28;20205;-76
2021/10/30 10:59:19;;;;;;;21.85;15.38;;;7.00;99.90;;;;;;5136555;28;20253;-75
2021/10/30 11:02:19;;;;;;;20.75;16.05;;;7.10;99.90;;;;;;5138263;28;20228;-75
2021/10/30 11:05:28;;;;;;;19.50;14.95;;;7.20;99.90;;;;;;5140202;28;20238;-75
2021/10/30 11:08:23;;;;;;;16.10;13.05;;;7.20;99.90;;;;;;5137983;27;20277;-76
2021/10/30 11:11:07;;;;;;;19.92;14.88;;;7.20;99.80;;;;;;5137065;28;20209;-75
2021/10/30 11:13:34;;;;;;;18.90;14.55;;;7.10;99.90;;;;;;5135353;28;20214;-76
2021/10/30 11:16:04;;;;;;;17.63;14.68;;;7.20;99.90;;;;;;5134830;28;20699;-75
2021/10/30 11:18:34;;;;;;;23.38;14.65;;;7.00;99.90;;;;;;5134219;28;20310;-76
2021/10/30 11:21:14;;;;;;;18.60;14.77;;;7.10;99.90;;;;;;5134333;28;20767;-74
2021/10/30 11:23:46;;;;;;;22.38;15.80;;;7.00;99.90;;;;;;5135532;28;20195;-77
2021/10/30 11:26:18;;;;;;;20.88;16.60;;;6.90;99.90;;;;;;5137928;28;20249;-75
2021/10/30 11:28:45;;;;;;;19.90;16.65;;;6.90;99.90;;;;;;5149587;28;20212;-76
2021/10/30 11:31:15;;;;;;;20.65;16.25;;;6.80;99.90;;;;;;5146793;28;20671;-75
2021/10/30 11:33:43;;;;;;;25.88;17.33;;;6.80;99.90;;;;;;5150584;28;20216;-74
2021/10/30 11:36:12;;;;;;;24.85;17.67;;;6.90;99.90;;;;;;5149474;28;20212;-75
2021/10/30 11:38:41;;;;;;;24.40;17.80;;;6.90;99.90;;;;;;5137275;28;20309;-76
2021/10/30 11:41:09;;;;;;;23.92;18.98;;;6.90;99.90;;;;;;5133646;28;20635;-75
2021/10/30 11:43:38;;;;;;;24.05;17.90;;;6.90;99.90;;;;;;5133077;28;20234;-75
2021/10/30 11:46:07;;;;;;;24.80;17.40;;;7.00;99.90;;;;;;5133031;28;20310;-75
2021/10/30 11:48:40;;;;;;;25.00;16.40;;;7.20;99.90;;;;;;5133465;27;20262;-76
2021/10/30 11:51:08;;;;;;;21.63;16.58;;;7.20;99.90;;;;;;5136055;27;20195;-76
2021/10/30 11:53:38;;;;;;;20.92;16.67;;;7.30;99.90;;;;;;5137109;27;20298;-76
2021/10/30 11:56:09;;;;;;;22.08;17.40;;;7.40;99.90;;;;;;5137317;27;20229;-75
2021/10/30 11:58:41;;;;;;;20.27;16.10;;;7.60;99.90;;;;;;5137286;27;20210;-76
2021/10/30 12:01:26;;;;;;;21.15;16.02;;;7.80;99.90;;;;;;5136829;27;20206;-75
2021/10/30 12:03:57;;;;;;;20.40;16.00;;;7.80;99.90;;;;;;5137328;27;20212;-75
2021/10/30 12:06:25;;;;;;;19.33;15.23;;;7.80;99.90;;;;;;5136893;27;20549;-74
2021/10/30 12:08:52;;;;;;;21.83;14.90;;;7.90;99.90;;;;;;5136415;27;20209;-75
2021/10/30 12:11:19;;;;;;;20.98;15.20;;;8.00;99.90;;;;;;5136714;27;20211;-75
2021/10/30 12:13:47;;;;;;;17.30;14.27;;;8.20;99.90;;;;;;5136435;27;20693;-75
2021/10/30 12:16:14;;;;;;;18.65;15.73;;;8.30;99.50;;;;;;5136734;27;20216;-75
2021/10/30 12:18:42;;;;;;;19.65;16.00;;;8.20;98.50;;;;;;5136700;27;20207;-77
2021/10/30 12:21:11;;;;;;;18.75;16.27;;;8.20;98.40;;;;;;5136227;27;20209;-75
2021/10/30 12:23:56;;;;;;;23.30;16.73;;;8.10;98.10;;;;;;5136251;27;20230;-74
2021/10/30 12:26:23;;;;;;;24.33;17.20;;;7.90;98.10;;;;;;5136479;27;20212;-76
2021/10/30 12:28:50;;;;;;;21.67;17.30;;;7.70;99.90;;;;;;5136137;27;20210;-76
2021/10/30 12:31:27;;;;;;;20.38;17.27;;;7.70;99.90;;;;;;5136392;27;20673;-75
2021/10/30 12:33:54;;;;;;;24.92;17.85;;;7.70;99.90;;;;;;5136481;27;20661;-77
2021/10/30 12:36:23;;;;;;;24.70;19.65;;;7.90;99.90;;;;;;5136635;27;20203;-76
2021/10/30 12:38:54;;;;;;;26.10;20.20;;;8.00;99.90;;;;;;5136441;27;20217;-75
2021/10/30 12:41:21;;;;;;;27.88;20.20;;;7.80;99.90;;;;;;5137696;27;20214;-75
2021/10/30 12:43:48;;;;;;;24.00;19.05;;;7.70;99.90;;;;;;5149848;27;20224;-75
2021/10/30 12:46:15;;;;;;;22.90;18.23;;;7.70;99.90;;;;;;5146161;27;20205;-76